Flight Track Log - Related Links

Times and Time Zones

All times are in EDT time to prevent confusion due to time zone crossing. See the TRS849 flight status page for this flight to view local times or setup timezone preferences in your user account.

Time Position Orientation Groundspeed Altitude Reporting Facility
EDT Latitude Longitude Course Direction KTS MPH feet Rate Location/Type
Mon 11:35:26 AM 40.7667 -73.8500 169° South 155 178 1,400  Level New York TRACON
Mon 11:36:26 AM 40.7000 -73.8333 252° West 221 254 3,200 2,263 Climbing New York TRACON
Mon 11:37:20 AM 40.6833 -73.9000 330° Northwest 257 296 5,700 3,211 Climbing New York TRACON
Mon 11:38:20 AM 40.7500 -73.9500 323° Northwest 253 291 9,300 3,124 Climbing New York TRACON
Mon 11:39:21 AM 40.8000 -74.0000 285° West 258 297 12,000 2,316 Climbing New York TRACON
Mon 11:40:14 AM 40.8167 -74.0833 252° West 275 316 13,700 1,447 Climbing New York TRACON
Mon 11:42:40 AM 40.7489 -74.3567 250° West 340 391 16,800 1,507 Climbing New York Center
Mon 11:43:41 AM 40.7161 -74.4753 250° West 351 404 18,900 2,067 Climbing New York Center
Mon 11:44:39 AM 40.6831 -74.5967 251° West 351 404 20,900 2,168 Climbing New York Center
Mon 11:45:40 AM 40.6497 -74.7208 254° West 356 410 23,200 2,508 Climbing New York Center
Mon 11:46:41 AM 40.6225 -74.8450 264° West 356 410 26,000 2,231 Climbing New York Center
Mon 11:47:41 AM 40.6122 -74.9647 256° West 350 403 27,700 1,271 Climbing New York Center
Mon 11:48:39 AM 40.5889 -75.0861 225° Southwest 350 403 28,500 661 Climbing New York Center
Mon 11:49:39 AM 40.5144 -75.1825 224° Southwest 366 421 29,000 397 Climbing New York Center
Mon 11:50:40 AM 40.4247 -75.2967 225° Southwest 425 489 29,300 645 Climbing New York Center
Mon 11:51:40 AM 40.3303 -75.4211 240° Southwest 446 513 30,300 1,029 Climbing New York Center
Mon 11:54:39 AM 40.1600 -75.8119 239° Southwest 427 491 33,400 925 Climbing New York Center
Mon 11:55:40 AM 40.0911 -75.9589 230° Southwest 432 497 34,000 298 Climbing New York Center
Mon 11:56:40 AM 40.0217 -76.0675 230° Southwest 439 505 34,000  Level New York Center
Mon 11:58:18 AM 39.8972 -76.2622 229° Southwest 431 496 34,000  Level Washington Center
Mon 11:59:19 AM 39.8194 -76.3775 228° Southwest 436 502 34,000  Level Washington Center
Mon 12:00:18 PM 39.7372 -76.4981 230° Southwest 431 496 34,000  Level Washington Center
Mon 12:01:18 PM 39.6486 -76.6344 228° Southwest 447 514 34,000  Level Washington Center
Mon 12:02:17 PM 39.5683 -76.7517 228° Southwest 447 514 34,000  Level Washington Center
Mon 12:03:17 PM 39.4881 -76.8689 228° Southwest 447 514 34,000  Level Washington Center
Mon 12:04:18 PM 39.4075 -76.9856 228° Southwest 442 509 34,000  Level Washington Center
Mon 12:05:19 PM 39.3269 -77.0994 229° Southwest 442 509 34,000  Level Washington Center
Mon 12:06:18 PM 39.2483 -77.2158 228° Southwest 436 502 34,000  Level Washington Center
Mon 12:07:17 PM 39.1675 -77.3317 228° Southwest 436 502 34,000  Level Washington Center
Mon 12:08:17 PM 39.0844 -77.4500 229° Southwest 436 502 34,000  Level Washington Center
Mon 12:09:18 PM 39.0142 -77.5525 227° Southwest 441 507 34,000  Level Washington Center
Mon 12:10:17 PM 38.9225 -77.6808 228° Southwest 441 507 34,000  Level Washington Center
Mon 12:11:17 PM 38.8517 -77.7828 228° Southwest 435 501 34,000  Level Washington Center
Mon 12:12:18 PM 38.7661 -77.9028 228° Southwest 442 509 34,000  Level Washington Center
Mon 12:13:19 PM 38.6847 -78.0172 228° Southwest 448 516 34,000  Level Washington Center
Mon 12:14:16 PM 38.6008 -78.1367 227° Southwest 448 516 34,000  Level Washington Center
Mon 12:15:17 PM 38.5169 -78.2531 228° Southwest 448 516 34,000  Level Washington Center
Mon 12:16:18 PM 38.4353 -78.3669 227° Southwest 448 516 34,000  Level Washington Center
Mon 12:17:19 PM 38.3533 -78.4803 227° Southwest 448 516 34,000  Level Washington Center
Mon 12:18:17 PM 38.2714 -78.5936 231° Southwest 448 516 34,000  Level Washington Center
Mon 12:19:18 PM 38.1931 -78.7144 227° Southwest 448 516 34,000  Level Washington Center
Mon 12:20:19 PM 38.1089 -78.8272 228° Southwest 448 516 34,000  Level Washington Center
Mon 12:21:19 PM 38.0264 -78.9422 228° Southwest 448 516 34,000  Level Washington Center
Mon 12:22:19 PM 37.9439 -79.0572 227° Southwest 453 521 34,000  Level Washington Center
Mon 12:23:16 PM 37.8547 -79.1792 227° Southwest 453 521 34,000  Level Washington Center
Mon 12:24:18 PM 37.7742 -79.2883 227° Southwest 448 516 34,000  Level Washington Center
Mon 12:25:18 PM 37.6892 -79.4050 227° Southwest 454 522 34,000  Level Washington Center
Mon 12:26:17 PM 37.6150 -79.5061 228° Southwest 454 522 34,000  Level Washington Center
Mon 12:27:17 PM 37.5233 -79.6322 226° Southwest 449 517 34,000  Level Washington Center
Mon 12:28:18 PM 37.4511 -79.7278 229° Southwest 443 510 34,000  Level Washington Center
Mon 12:29:19 PM 37.3611 -79.8564 226° Southwest 443 510 34,000  Level Washington Center
Mon 12:30:19 PM 37.2778 -79.9664 227° Southwest 448 516 34,000  Level Washington Center
Mon 12:31:17 PM 37.2033 -80.0667 227° Southwest 448 516 34,000  Level Washington Center
Mon 12:32:28 PM 37.1056 -80.1975 227° Southwest 438 504 34,000  Level Atlanta Center
Mon 12:33:28 PM 37.0214 -80.3108 226° Southwest 438 504 34,000  Level Atlanta Center
Mon 12:34:28 PM 36.9392 -80.4186 228° Southwest 432 497 34,000  Level Atlanta Center
Mon 12:35:28 PM 36.8489 -80.5422 227° Southwest 439 505 34,000  Level Atlanta Center
Mon 12:36:28 PM 36.7686 -80.6492 226° Southwest 439 505 34,000  Level Atlanta Center
Mon 12:37:28 PM 36.6919 -80.7483 227° Southwest 431 496 34,000  Level Atlanta Center
Mon 12:38:28 PM 36.6114 -80.8578 227° Southwest 437 503 34,000  Level Atlanta Center
Mon 12:39:28 PM 36.5247 -80.9722 227° Southwest 437 503 34,000  Level Atlanta Center
Mon 12:40:28 PM 36.4419 -81.0811 227° Southwest 437 503 34,000  Level Atlanta Center
Mon 12:41:28 PM 36.3569 -81.1953 227° Southwest 437 503 34,000  Level Atlanta Center
Mon 12:42:28 PM 36.2761 -81.3036 226° Southwest 437 503 34,000  Level Atlanta Center
Mon 12:43:28 PM 36.1889 -81.4172 226° Southwest 437 503 34,000  Level Atlanta Center
Mon 12:44:28 PM 36.0975 -81.5358 226° Southwest 432 497 34,000  Level Atlanta Center
Mon 12:45:28 PM 36.0100 -81.6464 227° Southwest 438 504 34,000  Level Atlanta Center
Mon 12:46:28 PM 35.9264 -81.7564 227° Southwest 438 504 34,000  Level Atlanta Center
Mon 12:47:29 PM 35.8431 -81.8664 225° Southwest 438 504 34,000  Level Atlanta Center
Mon 12:48:28 PM 35.7572 -81.9736 225° Southwest 438 504 34,000  Level Atlanta Center
Mon 12:49:28 PM 35.6692 -82.0831 223° Southwest 438 504 34,000  Level Atlanta Center
Mon 12:50:28 PM 35.5792 -82.1850 223° Southwest 438 504 34,000  Level Atlanta Center
Mon 12:51:28 PM 35.4889 -82.2892 224° Southwest 445 512 34,000 -250 Level Atlanta Center
Mon 12:52:28 PM 35.4006 -82.3928 222° Southwest 445 512 33,500 -750 Descending Atlanta Center
Mon 12:53:28 PM 35.3058 -82.4964 221° Southwest 458 527 32,500 -950 Descending Atlanta Center
Mon 12:54:28 PM 35.2236 -82.5844 223° Southwest 458 527 31,600 -942 Descending Atlanta Center
Mon 12:55:29 PM 35.1308 -82.6903 224° Southwest 453 521 30,600 -1,000 Descending Atlanta Center
Mon 12:56:28 PM 35.0400 -82.7958 222° Southwest 453 521 29,600 -1,008 Descending Atlanta Center
Mon 12:57:28 PM 34.9492 -82.8958 220° Southwest 448 516 28,600 -1,050 Descending Atlanta Center
Mon 12:58:28 PM 34.8561 -82.9908 225° Southwest 443 510 27,500 -1,050 Descending Atlanta Center
Mon 12:59:28 PM 34.7675 -83.0981 221° Southwest 418 481 26,500 -950 Descending Atlanta Center
Mon 01:00:28 PM 34.6803 -83.1900 223° Southwest 413 475 25,600 -1,000 Descending Atlanta Center
Mon 01:01:28 PM 34.5975 -83.2842 221° Southwest 413 475 24,500 -1,091 Descending Atlanta Center
Mon 01:02:29 PM 34.5144 -83.3708 225° Southwest 408 470 23,400 -1,000 Descending Atlanta Center
Mon 01:03:28 PM 34.4419 -83.4594 221° Southwest 388 447 22,500 -1,008 Descending Atlanta Center
Mon 01:04:28 PM 34.3631 -83.5431 223° Southwest 383 441 21,400 -1,140 Descending Atlanta Center
Mon 01:05:29 PM 34.2903 -83.6239 222° Southwest 372 428 20,200 -1,600 Descending Atlanta Center
Mon 01:06:28 PM 34.2111 -83.7097 222° Southwest 372 428 18,200 -2,067 Descending Atlanta Center
Mon 01:07:28 PM 34.1447 -83.7828 222° Southwest 372 428 16,100 -2,200 Descending Atlanta Center
Mon 01:08:28 PM 34.0717 -83.8608 222° Southwest 364 419 13,800 -1,686 Descending Atlanta Center
Mon 01:09:29 PM 33.9989 -83.9411 220° Southwest 357 411 12,700 -900 Descending Atlanta Center
Mon 01:10:28 PM 33.9278 -84.0139 222° Southwest 357 411 12,000 -353 Descending Atlanta Center
Mon 01:11:28 PM 33.8569 -84.0914 211° Southwest 357 411 12,000  Level Atlanta Center
Mon 01:12:28 PM 33.7669 -84.1561 239° Southwest 352 405 12,000  Level Atlanta Center
Mon 01:13:28 PM 33.7294 -84.2311 270° West 294 338 12,000 -149 Level Atlanta Center
Mon 01:14:29 PM 33.7292 -84.3111 272° West 247 284 11,700 -893 Descending Atlanta Center
Mon 01:15:29 PM 33.7311 -84.3911 272° West 237 273 10,200 -1,696 Descending Atlanta Center
Mon 01:16:47 PM 33.7333 -84.4833 270° West 229 264 7,800 -2,261 Descending Atlanta TRACON
Mon 01:17:47 PM 33.7333 -84.5667 209° Southwest 210 242 5,000 -1,900 Descending Atlanta TRACON
Mon 01:18:47 PM 33.6833 -84.6000 140° Southeast 218 251 4,000 -950 Descending Atlanta TRACON
Mon 01:19:47 PM 33.6500 -84.5667 90° East 196 226 3,100 -950 Descending Atlanta TRACON
Mon 01:20:47 PM 33.6500 -84.5000 90° East 155 178 2,100 -893 Descending Atlanta TRACON
Mon 01:21:48 PM 33.6500 -84.4500 90° East 151 174 1,300 -787 Descending Atlanta TRACON

Login

Don't have an account? Register now (free) for customized features, flight alerts, and more!